Time;durP1;ratioP1;P1;durP2;ratioP2;P2;SDS_P1;SDS_P2;PMS_P1;PMS_P2;Temp;Humidity;BMP_temperature;BMP_pressure;BME280_temperature;BME280_humidity;BME280_pressure;Samples;Min_cycle;Max_cycle;Signal;HPM_P1;HPM_P2
2021/05/09 00:00:45;;;;;;;1.27;0.73;;;;;;;15.49;89.49;98582.34;4435630;32;20152;-74
2021/05/09 00:03:10;;;;;;;1.35;0.68;;;;;;;15.41;90.05;98584.19;4435231;32;20100;-74
2021/05/09 00:05:36;;;;;;;3.33;0.80;;;;;;;15.41;89.46;98578.50;4435536;32;20110;-74
2021/05/09 00:08:02;;;;;;;2.55;1.17;;;;;;;15.38;89.60;98578.81;4434931;32;20068;-74
2021/05/09 00:10:28;;;;;;;3.00;1.45;;;;;;;15.31;89.26;98579.34;4435583;32;20678;-74
2021/05/09 00:12:53;;;;;;;2.12;1.33;;;;;;;15.27;89.85;98573.16;4435881;32;20080;-74
2021/05/09 00:15:23;;;;;;;2.28;1.12;;;;;;;15.26;89.92;98560.28;4435191;32;20030;-74
2021/05/09 00:17:49;;;;;;;3.85;1.40;;;;;;;15.13;90.89;98571.44;4434212;32;20052;-74
2021/05/09 00:20:14;;;;;;;3.97;1.55;;;;;;;15.10;91.04;98566.81;4433014;32;20096;-74
2021/05/09 00:22:40;;;;;;;5.55;1.45;;;;;;;15.06;91.33;98569.91;4423114;32;20490;-74
2021/05/09 00:25:06;;;;;;;7.07;2.72;;;;;;;15.16;90.99;98576.06;4434450;32;20489;-74
2021/05/09 00:27:32;;;;;;;1.92;1.30;;;;;;;15.23;90.85;98569.84;4434597;32;20081;-74
2021/05/09 00:29:57;;;;;;;2.60;1.20;;;;;;;15.22;90.94;98554.13;4434913;32;20173;-74
2021/05/09 00:32:23;;;;;;;3.15;1.40;;;;;;;15.24;90.56;98560.81;4435608;32;20085;-74
2021/05/09 00:34:49;;;;;;;5.78;1.30;;;;;;;15.31;90.34;98565.16;4435914;32;20056;-74
2021/05/09 00:37:15;;;;;;;3.40;1.25;;;;;;;15.25;90.34;98558.75;4439811;32;20147;-74
2021/05/09 00:39:41;;;;;;;2.95;1.58;;;;;;;15.28;89.99;98563.38;4433697;32;20090;-74
2021/05/09 00:42:07;;;;;;;4.10;1.55;;;;;;;15.29;90.08;98547.91;4420951;32;20081;-74
2021/05/09 00:44:34;;;;;;;3.00;1.58;;;;;;;15.27;90.23;98576.00;4438513;32;20072;-74
2021/05/09 00:47:05;;;;;;;4.87;1.55;;;;;;;15.30;90.49;98555.09;4435155;32;20025;-74
2021/05/09 00:49:31;;;;;;;3.03;1.30;;;;;;;15.25;90.86;98547.44;4434878;32;20079;-75
2021/05/09 00:51:59;;;;;;;3.92;1.40;;;;;;;15.18;91.56;98551.56;4435874;32;20478;-74
2021/05/09 00:54:27;;;;;;;8.13;1.50;;;;;;;15.31;91.44;98556.66;4433971;32;20176;-74
2021/05/09 00:56:55;;;;;;;4.72;1.67;;;;;;;15.26;91.75;98548.97;4434360;32;20323;-74
2021/05/09 00:59:22;;;;;;;3.78;1.52;;;;;;;15.24;92.04;98546.66;4435363;32;20115;-74
2021/05/09 01:01:49;;;;;;;4.12;1.77;;;;;;;15.31;91.81;98534.00;4435777;32;20108;-74
2021/05/09 01:04:16;;;;;;;3.78;1.73;;;;;;;15.31;91.81;98534.75;4436444;32;20076;-74
2021/05/09 01:06:44;;;;;;;3.60;1.42;;;;;;;15.27;92.05;98542.00;4437087;32;20033;-74
2021/05/09 01:09:11;;;;;;;5.72;1.55;;;;;;;15.24;92.12;98535.31;4436334;32;20059;-74
2021/05/09 01:11:37;;;;;;;3.67;1.48;;;;;;;15.40;91.24;98533.72;4433258;32;20104;-74
2021/05/09 01:14:04;;;;;;;3.80;1.42;;;;;;;15.40;91.18;98531.63;4435030;32;20403;-74
2021/05/09 01:16:30;;;;;;;4.15;1.40;;;;;;;15.40;90.53;98534.47;4434531;32;20100;-74
2021/05/09 01:18:55;;;;;;;2.92;1.30;;;;;;;15.39;90.76;98532.16;4438201;32;20426;-74
2021/05/09 01:21:21;;;;;;;3.45;1.52;;;;;;;15.45;90.90;98530.06;4436941;32;20098;-74
2021/05/09 01:23:47;;;;;;;3.85;1.30;;;;;;;15.48;90.38;98524.13;4437992;32;20046;-74
2021/05/09 01:26:13;;;;;;;1.77;1.12;;;;;;;15.46;89.83;98512.53;4433723;32;20428;-74
2021/05/09 01:28:39;;;;;;;2.28;1.00;;;;;;;15.42;90.07;98506.38;4430552;32;20350;-74
2021/05/09 01:31:04;;;;;;;6.22;1.00;;;;;;;15.38;90.04;98508.75;4434556;32;20120;-74
2021/05/09 01:33:31;;;;;;;3.20;0.98;;;;;;;15.40;90.22;98513.88;4434516;32;20030;-74
2021/05/09 01:35:58;;;;;;;2.47;1.20;;;;;;;15.45;89.86;98513.84;4435379;32;20071;-74
2021/05/09 01:38:24;;;;;;;3.00;1.23;;;;;;;15.44;90.04;98508.69;4438513;32;20045;-74
2021/05/09 01:40:50;;;;;;;2.37;0.90;;;;;;;15.49;90.13;98517.16;4438685;32;20108;-74
2021/05/09 01:43:15;;;;;;;1.77;0.90;;;;;;;15.42;89.97;98508.44;4435015;32;20097;-74
2021/05/09 01:45:41;;;;;;;1.12;0.70;;;;;;;15.41;90.25;98509.75;4437554;32;20041;-74
2021/05/09 01:48:07;;;;;;;1.30;0.70;;;;;;;15.44;89.85;98503.78;4433883;32;20104;-74
2021/05/09 01:50:33;;;;;;;3.75;1.02;;;;;;;15.39;88.94;98490.44;4435988;32;20416;-74
2021/05/09 01:53:01;;;;;;;2.37;0.68;;;;;;;15.36;89.51;98511.28;4437147;32;20073;-74
2021/05/09 01:55:27;;;;;;;1.98;0.80;;;;;;;15.33;89.01;98506.66;4438696;32;20076;-74
2021/05/09 01:57:52;;;;;;;3.75;1.23;;;;;;;15.27;89.56;98505.94;4437354;32;20398;-74
2021/05/09 02:00:20;;;;;;;2.10;1.30;;;;;;;15.22;89.51;98503.88;4439046;32;20421;-74
2021/05/09 02:02:46;;;;;;;5.37;1.62;;;;;;;15.22;89.75;98492.56;4434800;32;20158;-74
2021/05/09 02:05:13;;;;;;;2.62;1.37;;;;;;;15.12;90.25;98484.87;4436211;32;20138;-74
2021/05/09 02:07:38;;;;;;;4.65;1.60;;;;;;;15.10;90.26;98510.16;4436405;32;20698;-74
2021/05/09 02:10:05;;;;;;;5.03;1.80;;;;;;;15.04;90.83;98493.16;4438200;32;20520;-74
2021/05/09 02:12:32;;;;;;;5.20;2.35;;;;;;;15.11;91.05;98472.81;4439778;32;20042;-74
2021/05/09 02:14:58;;;;;;;4.90;2.00;;;;;;;15.04;91.13;98478.25;4437475;32;20051;-74
2021/05/09 02:17:23;;;;;;;2.90;1.90;;;;;;;15.00;91.14;98472.09;4438291;32;20049;-74
2021/05/09 02:19:49;;;;;;;3.58;2.00;;;;;;;14.95;91.59;98478.56;4436548;32;20069;-75
2021/05/09 02:22:15;;;;;;;5.43;1.95;;;;;;;14.98;91.73;98471.84;4436840;32;20132;-74
2021/05/09 02:24:44;;;;;;;3.87;1.70;;;;;;;15.01;92.09;98468.75;4424851;32;20410;-74
2021/05/09 02:27:11;;;;;;;3.08;1.80;;;;;;;15.05;91.55;98469.25;4439715;32;20120;-74
2021/05/09 02:29:37;;;;;;;2.53;1.52;;;;;;;15.06;91.50;98470.00;4436942;32;20092;-74
2021/05/09 02:32:04;;;;;;;3.75;1.40;;;;;;;15.09;91.24;98474.59;4435253;32;20424;-74
2021/05/09 02:34:34;;;;;;;2.60;1.23;;;;;;;15.09;91.21;98475.38;4435614;32;20087;-74
2021/05/09 02:37:00;;;;;;;3.58;1.42;;;;;;;15.14;90.91;98476.66;4437706;32;20119;-74
2021/05/09 02:39:26;;;;;;;3.30;1.50;;;;;;;15.13;91.31;98478.69;4435508;32;20061;-74
2021/05/09 02:41:52;;;;;;;1.92;1.23;;;;;;;15.12;90.38;98482.06;4436527;32;20096;-74
2021/05/09 02:44:17;;;;;;;2.35;1.15;;;;;;;15.13;90.30;98495.69;4435461;32;20486;-74
2021/05/09 02:46:43;;;;;;;2.08;1.00;;;;;;;15.17;90.79;98484.87;4436426;32;20711;-74
2021/05/09 02:49:09;;;;;;;2.35;1.00;;;;;;;15.16;90.44;98500.31;4433897;32;20153;-74
2021/05/09 02:51:34;;;;;;;1.77;0.93;;;;;;;15.19;90.72;98485.09;4439683;32;20103;-74
2021/05/09 02:54:01;;;;;;;2.85;0.85;;;;;;;15.21;91.06;98478.91;4436387;32;20155;-74
2021/05/09 02:56:27;;;;;;;1.48;0.90;;;;;;;15.21;91.01;98482.53;4435416;32;20093;-74
2021/05/09 02:58:53;;;;;;;3.15;0.88;;;;;;;15.28;90.94;98481.97;4436878;32;20152;-74
2021/05/09 03:01:19;;;;;;;3.00;0.85;;;;;;;15.23;91.11;98487.66;4438087;32;20192;-74
2021/05/09 03:03:45;;;;;;;1.52;0.57;;;;;;;15.25;91.03;98487.94;4436534;32;20111;-74
2021/05/09 03:06:10;;;;;;;1.40;0.70;;;;;;;15.28;90.63;98484.03;4439950;32;20199;-74
2021/05/09 03:08:36;;;;;;;2.15;0.80;;;;;;;15.24;90.83;98484.31;4433892;32;20127;-74
2021/05/09 03:11:02;;;;;;;0.98;0.60;;;;;;;15.32;90.20;98478.84;4435226;32;20025;-74
2021/05/09 03:13:30;;;;;;;1.30;0.57;;;;;;;15.37;90.07;98463.94;4435507;32;20071;-74
2021/05/09 03:15:57;;;;;;;1.80;0.73;;;;;;;15.33;89.76;98457.72;4437115;32;20070;-74
2021/05/09 03:18:23;;;;;;;3.45;0.80;;;;;;;15.28;90.11;98458.53;4436709;32;20088;-74
2021/05/09 03:20:49;;;;;;;3.40;1.05;;;;;;;15.28;90.13;98469.87;4437372;32;20064;-74
2021/05/09 03:23:14;;;;;;;1.25;0.68;;;;;;;15.29;90.08;98475.03;4436820;32;20103;-74
2021/05/09 03:25:40;;;;;;;0.50;0.50;;;;;;;15.30;90.23;98465.22;4439672;32;20108;-74
2021/05/09 03:28:06;;;;;;;1.33;0.65;;;;;;;15.31;90.30;98461.06;4434808;32;20084;-75
2021/05/09 03:30:32;;;;;;;0.68;0.40;;;;;;;15.42;89.55;98441.22;4435390;32;20068;-74
2021/05/09 03:32:58;;;;;;;1.02;0.40;;;;;;;15.31;89.64;98429.91;4436491;32;20041;-74
2021/05/09 03:35:25;;;;;;;2.05;0.40;;;;;;;15.28;89.61;98407.53;4435593;32;20152;-74
2021/05/09 03:37:51;;;;;;;1.75;0.50;;;;;;;15.22;89.95;98407.56;4435200;32;20029;-74
2021/05/09 03:40:16;;;;;;;1.17;0.50;;;;;;;15.17;90.14;98408.41;4435035;32;20376;-74
2021/05/09 03:42:42;;;;;;;0.82;0.35;;;;;;;15.19;90.00;98408.63;4438076;32;20321;-74
2021/05/09 03:45:09;;;;;;;2.03;0.32;;;;;;;15.16;89.48;98421.00;4435948;32;20068;-74
2021/05/09 03:47:37;;;;;;;0.55;0.35;;;;;;;15.21;89.78;98422.25;4435570;32;20322;-74
2021/05/09 03:50:04;;;;;;;0.60;0.40;;;;;;;15.20;89.45;98444.16;4437859;32;20041;-75
2021/05/09 03:52:30;;;;;;;2.67;0.55;;;;;;;15.28;89.31;98447.97;4432349;32;20128;-75
2021/05/09 03:54:57;;;;;;;3.08;0.62;;;;;;;15.26;89.27;98449.78;4436478;32;20126;-74
2021/05/09 03:57:23;;;;;;;1.73;0.50;;;;;;;15.27;89.17;98445.66;4437054;32;20102;-75
2021/05/09 03:59:49;;;;;;;3.55;0.50;;;;;;;15.30;88.75;98441.78;4432456;32;20026;-75
2021/05/09 04:02:15;;;;;;;3.55;0.40;;;;;;;15.33;88.31;98449.22;4434882;32;20154;-75
2021/05/09 04:04:41;;;;;;;1.30;0.70;;;;;;;15.38;88.28;98432.22;4433874;32;20490;-74
2021/05/09 04:07:06;;;;;;;1.35;0.57;;;;;;;15.38;87.87;98443.56;4440682;32;20053;-74
2021/05/09 04:09:32;;;;;;;1.50;0.45;;;;;;;15.42;87.85;98440.44;4436663;32;20030;-73
2021/05/09 04:11:58;;;;;;;2.67;0.60;;;;;;;15.43;87.70;98431.41;4438297;32;20471;-75
2021/05/09 04:14:24;;;;;;;2.35;0.50;;;;;;;15.50;86.36;98432.91;4421911;32;20071;-75
2021/05/09 04:16:50;;;;;;;2.75;0.73;;;;;;;15.46;86.86;98433.19;4435468;32;20081;-73
2021/05/09 04:19:15;;;;;;;3.37;0.60;;;;;;;15.51;86.09;98438.03;4434772;32;20049;-73
2021/05/09 04:21:41;;;;;;;0.60;0.60;;;;;;;15.51;85.53;98432.38;4436096;32;20085;-74
2021/05/09 04:24:08;;;;;;;2.75;0.70;;;;;;;15.43;85.76;98439.91;4435415;32;20137;-73
2021/05/09 04:26:34;;;;;;;0.82;0.55;;;;;;;15.50;85.70;98422.31;4435836;32;20104;-73
2021/05/09 04:28:59;;;;;;;1.42;0.60;;;;;;;15.51;86.01;98428.75;4419929;32;20450;-73
2021/05/09 04:31:25;;;;;;;2.97;0.80;;;;;;;15.59;85.46;98432.56;4432282;32;20187;-73
2021/05/09 04:33:51;;;;;;;2.05;0.93;;;;;;;15.59;85.26;98441.81;4433446;32;20367;-73
2021/05/09 04:36:17;;;;;;;2.15;0.82;;;;;;;15.55;85.45;98451.91;4437382;32;20511;-74
2021/05/09 04:38:43;;;;;;;3.10;1.08;;;;;;;15.59;84.92;98446.75;4436875;32;20089;-73
2021/05/09 04:41:08;;;;;;;1.80;1.17;;;;;;;15.58;85.37;98459.38;4436262;32;20096;-73
2021/05/09 04:43:36;;;;;;;2.15;1.20;;;;;;;15.54;85.03;98456.84;4435061;32;20111;-73
2021/05/09 04:46:03;;;;;;;2.08;1.15;;;;;;;15.59;84.78;98447.50;4435147;32;20054;-73
2021/05/09 04:48:30;;;;;;;1.65;0.95;;;;;;;15.53;85.91;98448.84;4436426;32;20157;-75
2021/05/09 04:50:55;;;;;;;4.32;1.05;;;;;;;15.49;86.04;98451.97;4423450;32;20081;-74
2021/05/09 04:53:38;;;;;;;2.60;1.27;;;;;;;15.36;86.58;98457.44;4433884;32;20092;-73
2021/05/09 04:56:07;;;;;;;1.73;1.20;;;;;;;15.39;86.95;98461.31;4421506;32;20068;-75
2021/05/09 04:58:36;;;;;;;1.17;0.80;;;;;;;15.39;86.60;98466.97;4436264;32;21090;-74
2021/05/09 05:01:04;;;;;;;2.17;1.08;;;;;;;15.42;86.54;98475.22;4433548;32;20130;-73
2021/05/09 05:03:31;;;;;;;4.57;0.95;;;;;;;15.43;86.64;98485.25;4437806;32;20091;-74
2021/05/09 05:05:57;;;;;;;2.87;1.20;;;;;;;15.50;86.74;98500.94;4437085;32;20081;-74
2021/05/09 05:08:23;;;;;;;2.75;1.23;;;;;;;15.50;87.00;98504.50;4434753;32;20073;-73
2021/05/09 05:10:50;;;;;;;1.83;0.70;;;;;;;15.47;86.76;98496.31;4433941;32;20112;-73
2021/05/09 05:15:55;;;;;;;1.02;0.43;;;;;;;15.56;82.26;98470.47;3984615;32;15076527;-74
2021/05/09 05:18:22;;;;;;;1.15;0.60;;;;;;;15.56;82.26;98470.47;4436984;32;20068;-74
2021/05/09 05:20:49;;;;;;;1.35;0.35;;;;;;;15.15;83.87;98464.00;4439124;32;20037;-74
2021/05/09 05:23:15;;;;;;;1.90;0.40;;;;;;;15.14;81.30;98476.66;4441409;32;20018;-74
2021/05/09 05:25:41;;;;;;;2.15;0.60;;;;;;;15.07;81.40;98460.22;4438444;32;20033;-74
2021/05/09 05:28:07;;;;;;;3.03;0.50;;;;;;;15.03;81.40;98462.56;4440247;32;20060;-74
2021/05/09 05:30:33;;;;;;;1.35;0.40;;;;;;;15.09;82.14;98460.44;4439927;32;20017;-72
2021/05/09 05:32:59;;;;;;;0.77;0.40;;;;;;;14.96;79.65;98455.38;4434958;32;20428;-73
2021/05/09 05:35:26;;;;;;;2.30;0.50;;;;;;;14.96;79.32;98451.78;4440129;32;20104;-73
2021/05/09 05:37:52;;;;;;;0.60;0.30;;;;;;;15.04;79.30;98444.28;4440731;32;20059;-74
2021/05/09 05:40:18;;;;;;;1.67;0.30;;;;;;;15.03;79.39;98445.56;4440835;32;20061;-73
2021/05/09 05:42:44;;;;;;;0.60;0.30;;;;;;;15.06;79.06;98459.44;4440799;32;20068;-73
2021/05/09 05:45:10;;;;;;;0.60;0.32;;;;;;;15.11;78.61;98469.19;4440631;32;20042;-74
2021/05/09 05:47:36;;;;;;;1.42;0.32;;;;;;;15.10;77.69;98467.66;4439515;32;20041;-74
2021/05/09 05:50:03;;;;;;;2.53;0.40;;;;;;;15.01;77.33;98465.16;4438436;32;20072;-73
2021/05/09 05:52:29;;;;;;;1.23;0.30;;;;;;;15.13;77.53;98469.44;4439736;32;20086;-73
2021/05/09 05:54:55;;;;;;;1.02;0.40;;;;;;;15.20;77.67;98486.66;4437695;32;20034;-74
2021/05/09 05:57:20;;;;;;;1.17;0.40;;;;;;;15.27;78.57;98473.97;4437718;32;20133;-73
2021/05/09 05:59:46;;;;;;;0.65;0.25;;;;;;;15.27;78.65;98488.16;4438833;32;20145;-73
2021/05/09 06:02:12;;;;;;;1.00;0.30;;;;;;;15.26;78.60;98493.06;4427789;32;20038;-74
2021/05/09 06:04:39;;;;;;;1.85;0.20;;;;;;;15.34;78.92;98485.53;4423743;32;20048;-73
2021/05/09 06:07:07;;;;;;;0.82;0.20;;;;;;;15.43;77.62;98496.59;4421271;32;20508;-74
2021/05/09 06:09:33;;;;;;;4.22;0.40;;;;;;;15.37;77.94;98489.44;4420495;32;20080;-74
2021/05/09 06:11:59;;;;;;;0.88;0.30;;;;;;;15.35;75.87;98489.16;4422349;32;20062;-74
2021/05/09 06:14:25;;;;;;;0.80;0.30;;;;;;;15.41;76.63;98498.41;4422242;32;20118;-74
2021/05/09 06:16:52;;;;;;;1.58;0.20;;;;;;;15.45;74.78;98496.06;4422125;32;20083;-74
2021/05/09 06:19:18;;;;;;;2.12;0.30;;;;;;;15.34;73.59;98493.28;4423076;32;20034;-74
2021/05/09 06:21:44;;;;;;;1.15;0.20;;;;;;;15.42;74.37;98499.94;4422079;32;20845;-73
2021/05/09 06:24:10;;;;;;;3.75;0.40;;;;;;;15.48;73.49;98503.50;4421189;32;20022;-73
2021/05/09 06:26:36;;;;;;;0.32;0.20;;;;;;;15.40;73.04;98508.97;4417693;32;20452;-73
2021/05/09 06:29:02;;;;;;;1.80;0.20;;;;;;;15.52;72.22;98516.09;4412282;32;20030;-73
2021/05/09 06:31:27;;;;;;;4.55;0.93;;;;;;;15.62;72.93;98520.16;4410548;32;20022;-73
2021/05/09 06:33:53;;;;;;;1.00;0.30;;;;;;;15.69;72.80;98524.50;4413223;32;20034;-73
2021/05/09 06:36:18;;;;;;;0.88;0.30;;;;;;;15.68;71.89;98526.56;4414925;32;20045;-73
2021/05/09 06:38:44;;;;;;;0.95;0.30;;;;;;;15.74;72.33;98524.44;4412019;32;20081;-73
2021/05/09 06:41:10;;;;;;;0.70;0.40;;;;;;;15.81;70.89;98526.72;4412478;32;20438;-73
2021/05/09 06:43:36;;;;;;;0.45;0.30;;;;;;;15.89;71.10;98522.00;4413627;32;20060;-73
2021/05/09 06:46:02;;;;;;;4.20;0.50;;;;;;;15.93;70.19;98530.25;4414564;32;20045;-73
2021/05/09 06:48:29;;;;;;;2.28;0.30;;;;;;;16.12;70.06;98522.59;4411645;32;20030;-73
2021/05/09 06:50:57;;;;;;;7.45;0.43;;;;;;;16.08;69.19;98527.03;4414107;32;20383;-73
2021/05/09 06:53:23;;;;;;;1.67;0.20;;;;;;;16.24;67.85;98512.69;4412749;32;20419;-73
2021/05/09 06:55:50;;;;;;;2.97;0.20;;;;;;;16.22;66.95;98520.16;4411474;32;20137;-72
2021/05/09 06:58:21;;;;;;;1.15;0.35;;;;;;;16.37;67.51;98534.72;4414247;32;20089;-72
2021/05/09 07:00:47;;;;;;;2.53;0.45;;;;;;;16.57;66.81;98537.91;4412691;32;20096;-73
2021/05/09 07:03:12;;;;;;;2.15;0.45;;;;;;;16.48;65.59;98538.28;4412521;32;20045;-73
2021/05/09 07:05:38;;;;;;;3.08;0.60;;;;;;;16.59;64.70;98531.69;4413525;32;20030;-74
2021/05/09 07:08:04;;;;;;;1.10;0.30;;;;;;;16.28;62.85;98550.03;4412384;32;20077;-74
2021/05/09 07:10:33;;;;;;;1.48;0.40;;;;;;;16.24;64.34;98543.91;4408938;32;20096;-73
2021/05/09 07:12:59;;;;;;;2.53;0.45;;;;;;;16.24;63.72;98555.25;4414064;32;20074;-74
2021/05/09 07:15:28;;;;;;;3.20;0.62;;;;;;;16.21;64.04;98558.38;4409671;32;20060;-73
2021/05/09 07:17:58;;;;;;;1.87;0.50;;;;;;;16.13;65.56;98561.00;4414191;32;20078;-73
2021/05/09 07:20:23;;;;;;;1.15;0.43;;;;;;;16.14;65.53;98554.03;4410570;32;20045;-74
2021/05/09 07:22:53;;;;;;;1.75;0.47;;;;;;;16.34;65.25;98538.63;4408736;32;20035;-74
2021/05/09 07:25:20;;;;;;;2.25;0.30;;;;;;;16.45;64.84;98539.34;4413668;32;20131;-74
2021/05/09 07:27:46;;;;;;;1.00;0.35;;;;;;;16.66;63.56;98553.84;4412943;32;20026;-74
2021/05/09 07:30:14;;;;;;;1.98;0.30;;;;;;;16.78;62.73;98561.69;4410611;32;20071;-74
2021/05/09 07:32:39;;;;;;;3.70;0.47;;;;;;;16.82;63.78;98567.09;4410819;32;20324;-74
2021/05/09 07:35:06;;;;;;;2.20;0.40;;;;;;;16.84;63.37;98576.59;4409959;32;20100;-74
2021/05/09 07:37:31;;;;;;;1.33;0.50;;;;;;;16.89;62.14;98578.63;4411857;32;20368;-74
2021/05/09 07:39:57;;;;;;;3.55;0.50;;;;;;;16.82;62.70;98592.66;4411194;32;20088;-74
2021/05/09 07:42:22;;;;;;;2.17;0.70;;;;;;;16.82;62.32;98581.28;4410913;32;20030;-74
2021/05/09 07:44:48;;;;;;;3.12;0.43;;;;;;;16.67;62.11;98590.22;4412117;32;20053;-74
2021/05/09 07:47:14;;;;;;;3.58;0.43;;;;;;;16.82;62.00;98581.28;4412951;32;20152;-74
2021/05/09 07:49:39;;;;;;;4.68;0.70;;;;;;;16.72;61.54;98582.94;4412730;32;20066;-74
2021/05/09 07:52:05;;;;;;;1.25;0.40;;;;;;;16.93;62.04;98584.75;4409558;32;20057;-74
2021/05/09 07:54:31;;;;;;;3.00;0.60;;;;;;;16.91;61.62;98583.75;4409656;32;20081;-74
2021/05/09 07:56:56;;;;;;;2.35;0.52;;;;;;;17.29;61.27;98580.47;4408516;32;20553;-74
2021/05/09 07:59:23;;;;;;;3.55;0.50;;;;;;;17.58;59.90;98571.03;4414055;32;20074;-74
2021/05/09 08:01:48;;;;;;;2.87;0.50;;;;;;;17.81;59.90;98548.72;4409827;32;20085;-74
2021/05/09 08:04:14;;;;;;;3.85;0.50;;;;;;;17.89;57.91;98561.78;4408741;32;20065;-75
2021/05/09 08:06:43;;;;;;;2.78;0.70;;;;;;;18.17;57.95;98560.56;4412039;32;20101;-74
2021/05/09 08:09:08;;;;;;;3.03;0.43;;;;;;;18.34;56.68;98567.50;4411539;32;20038;-74
2021/05/09 08:11:34;;;;;;;2.35;0.50;;;;;;;18.57;56.76;98565.84;4412318;32;20045;-74
2021/05/09 08:14:00;;;;;;;2.72;0.65;;;;;;;18.78;56.44;98575.28;4412053;32;20086;-74
2021/05/09 08:16:26;;;;;;;2.37;0.43;;;;;;;18.87;54.20;98565.56;4411283;32;20037;-74
2021/05/09 08:18:53;;;;;;;2.60;0.60;;;;;;;18.97;54.13;98578.03;4410899;32;20077;-74
2021/05/09 08:21:18;;;;;;;1.85;0.32;;;;;;;19.17;54.42;98580.22;4411586;32;20068;-74
2021/05/09 08:23:44;;;;;;;2.42;0.60;;;;;;;19.39;53.42;98583.41;4412884;32;20038;-74
2021/05/09 08:26:11;;;;;;;2.60;0.60;;;;;;;19.31;52.44;98584.63;4410661;32;20455;-74
2021/05/09 08:28:37;;;;;;;3.95;0.80;;;;;;;19.38;52.29;98593.28;4410969;32;20111;-74
2021/05/09 08:31:03;;;;;;;3.78;0.88;;;;;;;19.23;52.76;98589.44;4408197;32;21733;-74
2021/05/09 08:33:30;;;;;;;2.62;0.70;;;;;;;19.09;51.94;98588.66;4410957;32;20135;-74
2021/05/09 08:35:55;;;;;;;8.85;0.93;;;;;;;19.19;52.08;98589.00;4411415;32;20042;-75
2021/05/09 08:38:23;;;;;;;5.45;0.70;;;;;;;19.01;49.99;98587.81;4410768;32;20069;-75
2021/05/09 08:40:49;;;;;;;3.75;0.93;;;;;;;18.96;51.81;98605.78;4409619;32;20025;-75
2021/05/09 08:43:16;;;;;;;7.37;0.75;;;;;;;18.80;51.88;98606.84;4413446;32;20102;-75
2021/05/09 08:45:41;;;;;;;4.07;1.00;;;;;;;18.56;50.48;98612.72;4411433;32;20065;-75
2021/05/09 08:48:13;;;;;;;4.40;1.45;;;;;;;18.07;51.91;98600.03;4407298;32;20482;-75
2021/05/09 08:50:39;;;;;;;5.30;1.02;;;;;;;18.21;53.84;98612.25;4410314;32;20643;-75
2021/05/09 08:53:06;;;;;;;2.83;0.80;;;;;;;18.29;53.75;98610.31;4409226;32;20041;-75
2021/05/09 08:55:31;;;;;;;7.20;1.30;;;;;;;18.34;53.36;98612.28;4410158;32;20034;-76
2021/05/09 08:57:57;;;;;;;2.80;0.88;;;;;;;18.52;53.55;98614.34;4410394;32;20124;-76
2021/05/09 09:00:25;;;;;;;4.47;0.90;;;;;;;18.45;52.26;98603.59;4410205;32;20066;-76
2021/05/09 09:02:51;;;;;;;6.93;0.88;;;;;;;18.49;52.79;98604.03;4411300;32;20370;-76
2021/05/09 09:05:17;;;;;;;5.60;1.08;;;;;;;18.65;52.93;98600.91;4412258;32;20501;-76
2021/05/09 09:07:46;;;;;;;4.65;0.80;;;;;;;18.88;52.25;98604.13;4410660;32;20086;-76
2021/05/09 09:10:29;;;;;;;5.40;1.20;;;;;;;19.01;51.72;98604.13;4409668;32;20491;-76
2021/05/09 09:12:56;;;;;;;5.85;1.20;;;;;;;18.67;51.30;98597.53;4408634;32;20033;-76
2021/05/09 09:15:21;;;;;;;8.18;1.58;;;;;;;18.67;51.32;98606.06;4409514;32;20137;-73
2021/05/09 09:17:47;;;;;;;8.55;1.20;;;;;;;18.65;51.75;98591.63;4410134;32;20078;-75
2021/05/09 09:20:16;;;;;;;3.70;0.80;;;;;;;18.81;51.38;98576.28;4412490;32;20419;-75
2021/05/09 09:23:03;;;;;;;5.85;0.93;;;;;;;19.03;50.58;98588.03;4407446;32;21193;-74
2021/05/09 09:25:32;;;;;;;6.62;1.10;;;;;;;19.45;50.19;98583.28;4409999;32;20470;-74
2021/05/09 09:27:59;;;;;;;6.62;1.00;;;;;;;19.36;49.48;98601.63;4409322;32;20473;-74
2021/05/09 09:30:27;;;;;;;6.50;1.08;;;;;;;19.14;49.16;98587.00;4410197;32;20103;-74
2021/05/09 09:33:14;;;;;;;6.80;1.20;;;;;;;19.39;48.69;98591.22;4409774;32;20084;-74
2021/05/09 09:35:42;;;;;;;4.20;1.20;;;;;;;19.93;47.49;98584.81;4411033;32;20092;-74
2021/05/09 09:44:12;;;;;;;7.12;1.10;;;;;;;21.08;44.72;98598.28;3983146;32;15021525;-75
2021/05/09 09:49:30;;;;;;;3.03;0.70;;;;;;;20.67;43.77;98587.66;3985102;32;15028974;-74
2021/05/09 09:52:00;;;;;;;8.40;1.30;;;;;;;20.67;43.77;98587.66;4432104;32;20081;-75
2021/05/09 09:57:27;;;;;;;4.78;0.98;;;;;;;21.14;41.52;98585.34;3986031;32;15025840;-75
2021/05/09 10:00:13;;;;;;;6.15;1.02;;;;;;;21.14;41.52;98585.34;4438598;32;20471;-75
2021/05/09 10:02:42;;;;;;;6.45;1.27;;;;;;;20.86;41.91;98604.59;4434153;32;20418;-73
2021/05/09 10:05:09;;;;;;;3.15;0.80;;;;;;;21.28;41.93;98586.78;4429958;32;20419;-74
2021/05/09 10:07:35;;;;;;;6.15;1.15;;;;;;;21.21;41.54;98581.78;4429209;32;20038;-74
2021/05/09 10:10:03;;;;;;;8.52;1.45;;;;;;;21.15;42.23;98569.75;4423789;32;20681;-74
2021/05/09 10:12:29;;;;;;;6.80;1.30;;;;;;;21.26;42.45;98569.41;4423342;32;20556;-74
2021/05/09 10:14:55;;;;;;;3.03;0.95;;;;;;;21.51;42.77;98558.28;4425146;32;20050;-74
2021/05/09 10:17:22;;;;;;;7.50;1.10;;;;;;;21.82;42.22;98567.75;4430280;32;20073;-74
2021/05/09 10:19:49;;;;;;;2.70;0.75;;;;;;;22.23;41.75;98573.97;4430944;32;20038;-74
2021/05/09 10:22:34;;;;;;;4.82;0.88;;;;;;;22.66;39.98;98573.06;4431073;32;20045;-74
2021/05/09 10:25:01;;;;;;;3.47;1.02;;;;;;;22.57;41.00;98560.09;4427715;32;20104;-75
2021/05/09 10:27:43;;;;;;;5.43;0.98;;;;;;;22.70;40.07;98554.16;4428350;32;20154;-75
2021/05/09 10:30:11;;;;;;;3.00;0.73;;;;;;;22.78;38.50;98557.00;4429162;32;20039;-74
2021/05/09 10:35:12;;;;;;;1.92;0.90;;;;;;;23.19;39.20;98570.91;3983160;32;15025486;-76
2021/05/09 10:53:41;;;;;;;5.40;1.40;;;;;;;22.13;40.52;98529.25;3981864;32;15025591;-75
2021/05/09 10:56:28;;;;;;;8.70;1.00;;;;;;;22.13;40.52;98529.25;4429953;32;20069;-74
2021/05/09 10:58:55;;;;;;;3.12;0.70;;;;;;;22.26;40.77;98515.53;4430192;32;20252;-74
2021/05/09 11:01:23;;;;;;;4.03;0.88;;;;;;;22.83;39.34;98522.37;4427219;32;20074;-74
2021/05/09 11:14:17;;;;;;;3.65;0.80;;;;;;;23.06;37.92;98519.47;3986549;32;15030034;-74
2021/05/09 11:19:18;;;;;;;6.03;1.12;;;;;;;21.88;40.79;98525.41;3963269;32;15024925;-75
2021/05/09 11:21:49;;;;;;;5.28;0.75;;;;;;;21.88;40.79;98525.41;4417394;32;20072;-76
2021/05/09 11:24:24;;;;;;;5.78;1.00;;;;;;;21.79;40.28;98514.50;4421633;32;20069;-74
2021/05/09 11:26:52;;;;;;;4.47;1.00;;;;;;;21.87;39.58;98503.84;4420133;32;20057;-73
2021/05/09 11:29:21;;;;;;;2.90;0.52;;;;;;;22.08;38.94;98501.56;4417010;32;20046;-74
2021/05/09 11:34:27;;;;;;;5.00;1.02;;;;;;;23.00;38.12;98493.88;3982181;32;15041060;-74
2021/05/09 11:36:55;;;;;;;5.03;1.08;;;;;;;23.00;38.12;98493.88;4433755;32;20102;-74
2021/05/09 11:39:35;;;;;;;9.88;4.70;;;;;;;23.29;36.74;98497.25;4440482;32;20044;-74
2021/05/09 11:47:23;;;;;;;3.90;1.33;;;;;;;25.21;33.08;98496.97;3985089;32;15023007;-74
2021/05/09 11:49:51;;;;;;;4.82;0.95;;;;;;;25.21;33.08;98496.97;4439224;32;20037;-74
2021/05/09 11:52:20;;;;;;;3.30;0.70;;;;;;;25.06;33.29;98487.72;4441633;32;20034;-75
2021/05/09 11:54:52;;;;;;;4.40;0.80;;;;;;;24.36;33.47;98473.81;4440154;32;20073;-75
2021/05/09 11:57:20;;;;;;;9.98;1.40;;;;;;;23.76;34.31;98477.13;4442354;32;20045;-75
2021/05/09 11:59:49;;;;;;;5.03;0.98;;;;;;;23.98;34.02;98472.59;4441438;32;20753;-75
2021/05/09 12:07:55;;;;;;;3.08;0.68;;;;;;;24.11;34.46;98483.81;3982069;32;15024007;-73
2021/05/09 12:13:04;;;;;;;5.73;0.90;;;;;;;24.24;35.22;98489.25;4000427;31;15016866;-75
2021/05/09 12:15:32;;;;;;;5.22;1.27;;;;;;;24.24;35.22;98489.25;4456111;32;20195;-73
2021/05/09 12:17:58;;;;;;;9.55;1.10;;;;;;;23.84;35.12;98491.44;4458218;32;20057;-73
2021/05/09 12:23:02;;;;;;;4.95;1.25;;;;;;;24.64;33.56;98476.25;3981086;32;15035567;-74
2021/05/09 12:25:31;;;;;;;6.57;0.93;;;;;;;24.64;33.56;98476.25;4437028;32;20090;-74
2021/05/09 12:28:04;;;;;;;4.45;1.30;;;;;;;24.60;33.31;98478.78;4438909;32;20038;-74
2021/05/09 12:30:30;;;;;;;6.07;0.90;;;;;;;24.47;33.59;98481.19;4435816;32;20133;-74
2021/05/09 12:32:56;;;;;;;7.30;1.20;;;;;;;24.36;32.91;98479.56;4432482;32;20075;-74
2021/05/09 12:35:22;;;;;;;3.08;0.62;;;;;;;24.18;33.59;98488.72;4430146;32;20505;-74